createdAt,value
2017-11-17T00:00:57.216Z,97379.02
2017-11-17T00:03:54.961Z,97381.66
2017-11-17T00:19:45.812Z,97385.77
2017-11-17T00:22:34.704Z,97394.28
2017-11-17T00:25:32.737Z,97394.16
2017-11-17T00:41:22.536Z,97405.78
2017-11-17T00:44:12.236Z,97408.16
2017-11-17T00:47:09.927Z,97398.89
2017-11-17T00:50:06.867Z,97389.28
2017-11-17T00:53:03.884Z,97392.80
2017-11-17T00:56:00.919Z,97391.48
2017-11-17T00:58:57.947Z,97396.30
2017-11-17T01:01:55.916Z,97395.39
2017-11-17T01:04:21.722Z,97400.24
2017-11-17T01:23:57.652Z,97400.67
2017-11-17T01:26:23.433Z,97399.38
2017-11-17T01:29:13.100Z,97390.47
2017-11-17T01:32:10.917Z,97396.03
2017-11-17T01:35:08.043Z,97392.03
2017-11-17T01:47:55.807Z,97394.89
2017-11-17T01:50:45.653Z,97393.52
2017-11-17T01:53:43.065Z,97392.55
2017-11-17T01:56:40.684Z,97396.64
2017-11-17T01:59:38.165Z,97400.64
2017-11-17T02:02:41.636Z,97390.91
2017-11-17T02:05:38.785Z,97395.25
2017-11-17T02:11:25.656Z,97387.02
2017-11-17T02:14:14.852Z,97381.84
2017-11-17T02:17:11.606Z,97384.73
2017-11-17T02:20:09.334Z,97375.64
2017-11-17T02:23:07.182Z,97371.66
2017-11-17T02:26:04.843Z,97371.66
2017-11-17T02:29:02.609Z,97370.72
2017-11-17T02:32:00.164Z,97368.30
2017-11-17T02:34:25.974Z,97364.47
2017-11-17T02:54:00.296Z,97364.13
2017-11-17T02:56:26.122Z,97368.39
2017-11-17T02:59:15.616Z,97367.64
2017-11-17T03:18:28.026Z,97371.80
2017-11-17T03:21:17.089Z,97375.02
2017-11-17T03:24:14.213Z,97376.44
2017-11-17T03:27:11.351Z,97384.20
2017-11-17T03:30:09.086Z,97384.30
2017-11-17T03:33:06.033Z,97387.09
2017-11-17T03:42:14.676Z,97395.14
2017-11-17T03:45:04.414Z,97390.28
2017-11-17T03:48:02.106Z,97400.45
2017-11-17T04:07:08.493Z,97412.95
2017-11-17T04:10:06.463Z,97426.47
2017-11-17T04:13:03.556Z,97412.20
2017-11-17T04:16:01.104Z,97409.52
2017-11-17T04:18:58.314Z,97404.58
2017-11-17T04:28:06.852Z,97401.32
2017-11-17T04:30:56.680Z,97402.72
2017-11-17T04:50:08.188Z,97394.34
2017-11-17T05:09:43.036Z,97393.79
2017-11-17T05:12:08.840Z,97394.37
2017-11-17T05:14:58.219Z,97397.70
2017-11-17T05:17:56.277Z,97400.48
2017-11-17T05:33:46.137Z,97396.53
2017-11-17T05:36:35.699Z,97395.22
2017-11-17T05:39:32.925Z,97400.98
2017-11-17T05:42:29.892Z,97401.84
2017-11-17T05:45:26.923Z,97400.39
2017-11-17T05:48:23.966Z,97395.05
2017-11-17T05:51:21.069Z,97389.68
2017-11-17T05:54:18.863Z,97390.48
2017-11-17T06:13:28.749Z,97390.90
2017-11-17T06:16:26.620Z,97397.66
2017-11-17T06:18:52.409Z,97406.08
2017-11-17T06:21:41.826Z,97414.06
2017-11-17T06:24:39.868Z,97422.45
2017-11-17T06:27:37.736Z,97419.98
2017-11-17T06:40:22.559Z,97427.83
2017-11-17T06:43:11.520Z,97428.33
2017-11-17T06:46:08.716Z,97432.09
2017-11-17T06:49:05.569Z,97439.25
2017-11-17T06:52:02.540Z,97437.23
2017-11-17T06:54:59.460Z,97436.23
2017-11-17T06:57:56.377Z,97436.40
2017-11-17T07:00:53.124Z,97435.48
2017-11-17T07:03:18.917Z,97440.00
2017-11-17T07:06:08.450Z,97436.97
2017-11-17T07:09:05.471Z,97450.11
2017-11-17T07:12:03.303Z,97459.76
2017-11-17T07:24:45.561Z,97472.78
2017-11-17T07:27:35.052Z,97473.50
2017-11-17T07:30:32.803Z,97469.72
2017-11-17T07:33:30.658Z,97469.58
2017-11-17T07:36:27.597Z,97471.19
2017-11-17T07:39:24.541Z,97473.62
2017-11-17T07:42:22.383Z,97468.98
2017-11-17T07:48:09.884Z,97478.26
2017-11-17T07:50:59.277Z,97483.89
2017-11-17T07:53:56.683Z,97473.94
2017-11-17T07:56:53.960Z,97474.20
2017-11-17T07:59:51.801Z,97470.91
2017-11-17T08:02:48.735Z,97467.73
2017-11-17T08:05:45.679Z,97470.78
2017-11-17T08:08:42.724Z,97469.22
2017-11-17T08:11:08.525Z,97467.58
2017-11-17T08:30:43.552Z,97470.17
2017-11-17T08:33:09.348Z,97474.48
2017-11-17T08:35:58.640Z,97473.50
2017-11-17T08:55:10.917Z,97465.69
2017-11-17T08:57:59.816Z,97468.67
2017-11-17T09:00:56.740Z,97465.50
2017-11-17T09:03:53.818Z,97464.84
2017-11-17T09:06:51.643Z,97475.87
2017-11-17T09:09:48.820Z,97470.39
2017-11-17T09:18:57.135Z,97487.41
2017-11-17T09:21:46.796Z,97490.80
2017-11-17T09:24:43.737Z,97491.81
2017-11-17T09:27:41.071Z,97497.39
2017-11-17T09:30:38.940Z,97501.67
2017-11-17T09:33:36.988Z,97501.23
2017-11-17T09:36:34.848Z,97504.84
2017-11-17T09:42:22.509Z,97505.48
2017-11-17T09:45:11.343Z,97507.81
2017-11-17T09:48:09.091Z,97504.16
2017-11-17T10:03:58.820Z,97511.63
2017-11-17T10:06:47.881Z,97515.27
2017-11-17T10:09:45.115Z,97516.91
2017-11-17T10:12:42.138Z,97515.02
2017-11-17T10:15:39.396Z,97506.63
2017-11-17T10:18:36.467Z,97500.77
2017-11-17T10:21:33.589Z,97498.09
2017-11-17T10:24:30.476Z,97496.34
2017-11-17T10:26:56.260Z,97499.64
2017-11-17T10:29:45.213Z,97497.39
2017-11-17T10:32:42.332Z,97498.59
2017-11-17T10:35:39.132Z,97493.59
2017-11-17T10:38:36.102Z,97496.96
2017-11-17T10:41:32.995Z,97490.54
2017-11-17T10:50:41.272Z,97492.55
2017-11-17T11:10:15.804Z,97479.84
2017-11-17T11:12:41.604Z,97481.83
2017-11-17T11:15:31.408Z,97479.28
2017-11-17T11:18:29.207Z,97477.31
2017-11-17T11:21:26.908Z,97480.91
2017-11-17T11:24:24.788Z,97483.53
2017-11-17T11:27:22.121Z,97478.37
2017-11-17T11:36:29.836Z,97482.51
2017-11-17T11:56:05.642Z,97473.02
2017-11-17T11:58:31.437Z,97473.64
2017-11-17T12:01:20.813Z,97469.94
2017-11-17T12:04:18.652Z,97468.71
2017-11-17T12:23:26.426Z,97465.66
2017-11-17T12:42:38.112Z,97461.29
2017-11-17T12:45:27.180Z,97456.48
2017-11-17T12:48:24.192Z,97450.69
2017-11-17T12:51:21.536Z,97447.82
2017-11-17T12:54:19.173Z,97442.55
2017-11-17T13:04:08.933Z,97429.38
2017-11-17T13:06:58.764Z,97432.67
2017-11-17T13:29:24.306Z,97410.45
2017-11-17T13:32:22.168Z,97408.07
2017-11-17T13:35:20.119Z,97408.75
2017-11-17T13:38:17.217Z,97408.89
2017-11-17T13:41:14.176Z,97413.38
2017-11-17T13:44:12.122Z,97409.11
2017-11-17T13:47:09.140Z,97411.52
2017-11-17T14:06:21.357Z,97417.37
2017-11-17T14:09:18.367Z,97412.04
2017-11-17T14:11:44.128Z,97415.02
2017-11-17T14:14:33.788Z,97412.66
2017-11-17T14:33:45.230Z,97408.44
2017-11-17T14:36:34.898Z,97404.22
2017-11-17T14:55:47.075Z,97402.95
2017-11-17T15:15:22.972Z,97406.87
2017-11-17T15:34:33.624Z,97407.48
2017-11-17T15:53:44.986Z,97411.73
2017-11-17T15:56:42.908Z,97406.83
2017-11-17T15:59:41.007Z,97412.32
2017-11-17T16:02:14.892Z,97417.06
2017-11-17T16:05:04.781Z,97413.53
2017-11-17T16:08:02.292Z,97408.24
2017-11-17T16:10:59.683Z,97415.92
2017-11-17T16:13:57.232Z,97416.00
2017-11-17T16:16:54.774Z,97411.49
2017-11-17T16:19:51.928Z,97405.42
2017-11-17T16:25:38.872Z,97400.84
2017-11-17T16:28:27.897Z,97409.18
2017-11-17T16:31:25.740Z,97409.69
2017-11-17T16:34:23.087Z,97400.02
2017-11-17T16:47:06.689Z,97404.83
2017-11-17T17:06:47.921Z,97395.97
2017-11-17T17:09:13.713Z,97389.63
2017-11-17T17:12:03.111Z,97393.27
2017-11-17T17:15:00.147Z,97390.72
2017-11-17T17:17:58.104Z,97387.19
2017-11-17T17:20:55.145Z,97388.75
2017-11-17T17:30:47.328Z,97391.54
2017-11-17T17:50:23.756Z,97408.20
2017-11-17T17:52:49.524Z,97409.27
2017-11-17T17:55:39.161Z,97410.95
2017-11-17T18:14:51.972Z,97400.59
2017-11-17T18:17:41.867Z,97403.63
2017-11-17T18:20:39.780Z,97406.39
2017-11-17T18:23:36.951Z,97404.78
2017-11-17T18:26:34.737Z,97413.84
2017-11-17T18:29:31.893Z,97407.41
2017-11-17T18:48:50.519Z,97397.39
2017-11-17T19:01:34.494Z,97396.33
2017-11-17T19:04:24.177Z,97396.56
2017-11-17T19:23:36.818Z,97397.88
2017-11-17T19:26:26.885Z,97400.34
2017-11-17T19:29:24.823Z,97398.73
2017-11-17T19:45:16.027Z,97383.02
2017-11-17T19:48:05.344Z,97374.36
2017-11-17T20:07:18.512Z,97378.09
2017-11-17T20:10:07.965Z,97378.38
2017-11-17T20:13:05.081Z,97376.60
2017-11-17T20:16:02.860Z,97375.02
2017-11-17T20:19:00.685Z,97379.50
2017-11-17T20:21:58.560Z,97373.08
2017-11-17T20:31:07.296Z,97378.63
2017-11-17T20:33:57.101Z,97380.48
2017-11-17T20:36:54.894Z,97389.55
2017-11-17T20:39:52.859Z,97387.81
2017-11-17T20:42:50.686Z,97376.42
2017-11-17T20:45:48.653Z,97370.97
2017-11-17T20:48:45.889Z,97375.42
2017-11-17T20:51:43.672Z,97373.95
2017-11-17T21:11:01.637Z,97364.49
2017-11-17T21:13:58.658Z,97361.80
2017-11-17T21:16:24.422Z,97367.15
2017-11-17T21:19:13.481Z,97366.33
2017-11-17T21:22:10.617Z,97373.22
2017-11-17T21:25:08.492Z,97370.23
2017-11-17T21:38:27.658Z,97369.56
2017-11-17T21:40:53.489Z,97371.86
2017-11-17T21:43:19.287Z,97370.74
2017-11-17T21:45:45.065Z,97373.64
2017-11-17T21:48:10.844Z,97368.02
2017-11-17T21:50:36.628Z,97364.17
2017-11-17T21:53:02.416Z,97366.36
2017-11-17T21:55:28.195Z,97363.31
2017-11-17T21:57:53.969Z,97361.13
2017-11-17T22:00:19.740Z,97352.67
2017-11-17T22:02:45.516Z,97354.44
2017-11-17T22:05:11.277Z,97352.83
2017-11-17T22:07:37.053Z,97349.78
2017-11-17T22:10:02.851Z,97355.34
2017-11-17T22:12:28.600Z,97347.16
2017-11-17T22:14:54.375Z,97344.65
2017-11-17T22:17:20.156Z,97343.71
2017-11-17T22:19:45.933Z,97352.61
2017-11-17T22:22:11.709Z,97353.81
2017-11-17T22:24:37.482Z,97352.48
2017-11-17T22:27:03.247Z,97352.06
2017-11-17T22:29:29.023Z,97355.94
2017-11-17T22:31:54.802Z,97362.25
2017-11-17T22:34:20.539Z,97364.72
2017-11-17T22:36:46.300Z,97360.34
2017-11-17T22:39:12.068Z,97356.97
2017-11-17T22:41:37.832Z,97357.59
2017-11-17T22:44:03.609Z,97353.27
2017-11-17T22:46:29.347Z,97347.20
2017-11-17T22:48:55.118Z,97352.20
2017-11-17T22:51:20.895Z,97346.53
2017-11-17T22:53:46.632Z,97341.13
2017-11-17T22:56:12.405Z,97347.94
2017-11-17T22:58:38.178Z,97330.60
2017-11-17T23:01:03.921Z,97328.92
2017-11-17T23:03:29.684Z,97324.13
2017-11-17T23:05:55.441Z,97319.98
2017-11-17T23:08:21.192Z,97315.28
2017-11-17T23:10:46.960Z,97316.78
2017-11-17T23:13:12.700Z,97310.23
2017-11-17T23:15:38.455Z,97306.05
2017-11-17T23:18:04.217Z,97298.35
2017-11-17T23:20:29.972Z,97300.34
2017-11-17T23:22:55.757Z,97294.16
2017-11-17T23:25:21.504Z,97287.58
2017-11-17T23:27:47.254Z,97281.19
2017-11-17T23:30:13.027Z,97279.47
2017-11-17T23:32:38.784Z,97272.34
2017-11-17T23:35:04.635Z,97278.30
2017-11-17T23:37:33.416Z,97277.35
2017-11-17T23:39:59.252Z,97280.76
2017-11-17T23:42:25.033Z,97275.52
2017-11-17T23:44:50.808Z,97272.27
2017-11-17T23:47:16.570Z,97279.98
2017-11-17T23:49:42.361Z,97275.59
2017-11-17T23:52:08.143Z,97278.25
2017-11-17T23:54:33.936Z,97276.06
2017-11-17T23:56:59.686Z,97277.31
2017-11-17T23:59:25.459Z,97279.39
